Stations météo

réclame
Mon MeteoGroup
Hemavan, Suède (2104): Température de l'air & dewpoint: 18.01.2018 10:00:00 - 24.01.2018 10:00:00 (CET)Hemavan, Suède (2104): Vitesse du vent: 18.01.2018 10:00:00 - 24.01.2018 10:00:00 (CET)Hemavan, Suède (2104): Direction du vent: 18.01.2018 10:00:00 - 24.01.2018 10:00:00 (CET)Hemavan, Suède (2104): visibility: 18.01.2018 10:00:00 - 24.01.2018 10:00:00 (CET)
Date & Time tt [°C] td [°C] ff [km/h] ff [knt] dd vv [km]
24.01.2018 10:00:00 -9,0 -12,0 21 11 S 1,9
24.01.2018 09:00:00 -9,0 -12,0 24 13 S 7
24.01.2018 08:00:00 -9,0 -12,0 26 14 S 2,3
24.01.2018 07:00:00 -9,0 -12,0 24 13 S 2,5
24.01.2018 06:00:00 -10,0 -12,0 26 14 S 1,8
24.01.2018 05:00:00 -10,0 -12,0 26 14 S 1,8
24.01.2018 04:00:00 -10,0 -14,0 18 10 S 10
24.01.2018 03:00:00 -9,0 -13,0 28 15 S 10
24.01.2018 02:00:00 -10,0 -13,0 21 11 S 10
24.01.2018 01:00:00 -10,0 -14,0 26 14 S 10
24.01.2018 00:00:00 -11,0 -13,0 28 15 SSE 10
23.01.2018 23:00:00 -16,0 -18,0 11 6 N 10
23.01.2018 22:00:00 -19,0 -21,0 13 7 NNW 10
23.01.2018 21:00:00 -21,0 -23,0 5 3 - 10
23.01.2018 20:00:00 -23,0 -26,0 4 2 - 10
23.01.2018 19:00:00 -24,0 -27,0 5 3 - 10
23.01.2018 18:00:00 -23,0 -26,0 4 2 - 10
23.01.2018 17:00:00 -25,0 -27,0 5 3 NNW 10
23.01.2018 16:00:00 -26,0 -29,0 4 2 - 10
23.01.2018 15:00:00 -26,0 -28,0 0 0 N 10
23.01.2018 14:00:00 -25,0 -27,0 4 2 - 10
23.01.2018 13:00:00 -25,0 -28,0 2 1 - 10
23.01.2018 12:00:00 -21,0 -24,0 4 2 - 2,6
23.01.2018 11:00:00 -22,0 -24,0 8 4 E 4,2
23.01.2018 10:00:00 -19,0 -21,0 8 4 ESE 1,9
23.01.2018 09:00:00 -18,0 -20,0 11 6 SE 2,0
23.01.2018 08:00:00 -17,0 -19,0 8 4 ESE 1,5
23.01.2018 07:00:00 -16,0 -18,0 13 7 SE 2,7
23.01.2018 06:00:00 -16,0 -18,0 8 4 SE 2,6
23.01.2018 05:00:00 -19,0 -20,0 0 0 N 1,1
23.01.2018 04:00:00 -19,0 -21,0 0 0 N 1,8
23.01.2018 03:00:00 -16,0 -18,0 8 4 ESE 2,4
23.01.2018 02:00:00 -17,0 -19,0 4 2 - 2,7
23.01.2018 01:00:00 -14,0 -16,0 11 6 SE 4,1
23.01.2018 00:00:00 -14,0 -16,0 16 9 SSE 5
22.01.2018 23:00:00 -13,0 -16,0 15 8 SSE 4,8
22.01.2018 22:00:00 -13,0 -16,0 15 8 SSE 8
22.01.2018 21:00:00 -13,0 -15,0 15 8 SE 4,5
22.01.2018 20:00:00 -13,0 -15,0 16 9 SE 3,9
22.01.2018 19:00:00 -13,0 -15,0 11 6 SE 4,0
22.01.2018 18:00:00 -13,0 -15,0 18 10 SE 6
22.01.2018 17:00:00 -13,0 -15,0 16 9 SE 7
22.01.2018 16:00:00 -13,0 -15,0 13 7 ESE 4,7
22.01.2018 15:00:00 -13,0 -15,0 13 7 SE 4,0
22.01.2018 14:00:00 -13,0 -15,0 13 7 ESE 2,7
22.01.2018 13:00:00 - - - - - -
22.01.2018 12:00:00 - - - - - -
22.01.2018 11:00:00 - - - - - -
22.01.2018 10:00:00 -15,0 -17,0 11 6 SE 1,8
22.01.2018 09:00:00 -16,0 -18,0 0 0 N 2,0
22.01.2018 08:00:00 -16,0 -18,0 0 0 N 1,7
22.01.2018 07:00:00 -17,0 -18,0 0 0 N 2,6
22.01.2018 06:00:00 -17,0 -19,0 4 2 SE 4,1
22.01.2018 05:00:00 -17,0 -19,0 0 0 N 2,9
22.01.2018 04:00:00 -18,0 -20,0 4 2 - 7
22.01.2018 03:00:00 -18,0 -20,0 2 1 - 10
22.01.2018 02:00:00 -19,0 -21,0 4 2 - 10
22.01.2018 01:00:00 -20,0 -22,0 4 2 - 10
22.01.2018 00:00:00 -20,0 -22,0 4 2 SSE 10
21.01.2018 23:00:00 -21,0 -23,0 5 3 ESE 10
21.01.2018 22:00:00 -21,0 -23,0 0 0 N 10
21.01.2018 21:00:00 -24,0 -26,0 0 0 N 10
21.01.2018 20:00:00 -25,0 -28,0 0 0 N 10
21.01.2018 19:00:00 -26,0 -28,0 2 1 ENE 10
21.01.2018 18:00:00 -25,0 -28,0 0 0 N 10
21.01.2018 17:00:00 -25,0 -27,0 4 2 - 10
21.01.2018 16:00:00 -23,0 -26,0 2 1 - 10
21.01.2018 15:00:00 -22,0 -24,0 4 2 NE 10
21.01.2018 14:00:00 -22,0 -24,0 0 0 N 10
21.01.2018 13:00:00 -19,0 -21,0 0 0 N 0,5
21.01.2018 12:00:00 -16,0 -17,0 0 0 N 9
21.01.2018 11:00:00 -14,0 -16,0 8 4 E 1,5
21.01.2018 10:00:00 -12,0 -14,0 5 3 SE 2,4
21.01.2018 09:00:00 -12,0 -14,0 8 4 SSE 3,7
21.01.2018 08:00:00 -12,0 -14,0 5 3 SE 4,6
21.01.2018 07:00:00 -11,0 -13,0 4 2 ESE 4,6
21.01.2018 06:00:00 -11,0 -13,0 8 4 SE 4,7
21.01.2018 05:00:00 -12,0 -14,0 0 0 N 4,7
21.01.2018 04:00:00 -11,0 -13,0 5 3 ESE 8
21.01.2018 03:00:00 -11,0 -14,0 9 5 SSE 7
21.01.2018 02:00:00 -11,0 -13,0 11 6 SSE 5
21.01.2018 01:00:00 -11,0 -13,0 8 4 ESE 10
21.01.2018 00:00:00 -11,0 -13,0 13 7 SE 10
20.01.2018 23:00:00 -11,0 -13,0 11 6 SE 10
20.01.2018 22:00:00 -11,0 -14,0 9 5 ESE 10
20.01.2018 21:00:00 -11,0 -14,0 13 7 SE 10
20.01.2018 20:00:00 -13,0 -14,0 5 3 WNW 10
20.01.2018 19:00:00 -13,0 -15,0 5 3 - 10
20.01.2018 18:00:00 -13,0 -15,0 5 3 - 10
20.01.2018 17:00:00 -14,0 -16,0 8 4 ESE 9
20.01.2018 16:00:00 -14,0 -16,0 2 1 - 10
20.01.2018 15:00:00 -15,0 -17,0 8 4 N 10
20.01.2018 14:00:00 -15,0 -17,0 8 4 - 10
20.01.2018 13:00:00 -15,0 -17,0 5 3 NNW 10
20.01.2018 12:00:00 -16,0 -18,0 5 3 N 10
20.01.2018 11:00:00 -16,0 -18,0 5 3 N 9
20.01.2018 10:00:00 -17,0 -19,0 5 3 NNW 10
20.01.2018 09:00:00 -18,0 -20,0 5 3 - 10
20.01.2018 08:00:00 -19,0 -21,0 5 3 - 10
20.01.2018 07:00:00 -19,0 -21,0 5 3 NW 10
20.01.2018 06:00:00 -19,0 -20,0 5 3 - 10
20.01.2018 05:00:00 -17,0 -19,0 4 2 - 10
20.01.2018 04:00:00 -14,0 -16,0 11 6 SE 10
20.01.2018 03:00:00 -12,0 -16,0 21 11 SSE 10
20.01.2018 02:00:00 -11,0 -15,0 21 11 S 10
20.01.2018 01:00:00 -12,0 -15,0 18 10 SSE 10
20.01.2018 00:00:00 -12,0 -15,0 13 7 SE 10
19.01.2018 23:00:00 -12,0 -16,0 16 9 SSE 10
19.01.2018 22:00:00 -12,0 -16,0 24 13 SSE 10
19.01.2018 21:00:00 -12,0 -15,0 18 10 SSE 10
19.01.2018 20:00:00 -11,0 -15,0 24 13 SSE 10
19.01.2018 19:00:00 -12,0 -16,0 22 12 SSE 10
19.01.2018 18:00:00 -12,0 -16,0 18 10 SSE 10
19.01.2018 17:00:00 -12,0 -16,0 21 11 SSE 10
19.01.2018 16:00:00 -12,0 -15,0 29 16 SSE 10
19.01.2018 15:00:00 -12,0 -15,0 28 15 SSE 10
19.01.2018 14:00:00 -11,0 -15,0 29 16 SSE 10
19.01.2018 13:00:00 -11,0 -15,0 35 19 SSE 10
19.01.2018 12:00:00 -11,0 -15,0 35 19 SSE 10
19.01.2018 11:00:00 -11,0 -15,0 29 16 SSE 10
19.01.2018 10:00:00 -12,0 -15,0 28 15 SSE 10
19.01.2018 09:00:00 -14,0 -16,0 13 7 S 10
19.01.2018 08:00:00 -14,0 -15,0 4 2 - 10
19.01.2018 07:00:00 -14,0 -16,0 13 7 SE 10
19.01.2018 06:00:00 -20,0 -22,0 5 3 N 10
19.01.2018 05:00:00 -20,0 -22,0 4 2 - 10
19.01.2018 04:00:00 -19,0 -21,0 4 2 - 10
19.01.2018 03:00:00 -18,0 -20,0 4 2 - 10
19.01.2018 02:00:00 -18,0 -20,0 5 3 NNW 7
19.01.2018 01:00:00 -17,0 -19,0 9 5 NNW 10
19.01.2018 00:00:00 -17,0 -19,0 9 5 SE 10
18.01.2018 23:00:00 -13,0 -16,0 13 7 SE 10
18.01.2018 22:00:00 -13,0 -16,0 15 8 S 10
18.01.2018 21:00:00 -13,0 -16,0 13 7 SSE 10
18.01.2018 20:00:00 -12,0 -16,0 15 8 S 10
18.01.2018 19:00:00 -12,0 -16,0 21 11 S 10
18.01.2018 18:00:00 -11,0 -15,0 24 13 S 10
18.01.2018 17:00:00 -11,0 -15,0 21 11 SSE 10
18.01.2018 16:00:00 -11,0 -16,0 18 10 S 10
18.01.2018 15:00:00 -12,0 -16,0 21 11 SSE 10
18.01.2018 14:00:00 -12,0 -16,0 18 10 SSE 10
18.01.2018 13:00:00 -13,0 -17,0 13 7 SSE 10
18.01.2018 12:00:00 -13,0 -17,0 11 6 S 10
18.01.2018 11:00:00 -12,0 -16,0 21 11 SSE 9
18.01.2018 10:00:00 -12,0 -17,0 18 10 SE 10

tt = Température de l'air
td = dewpoint
ff = Vitesse du vent
dd = Direction du vent
vv = visibility

stations d'obs. à proximité